Time;durP1;ratioP1;P1;durP2;ratioP2;P2;SDS_P1;SDS_P2;PMS_P1;PMS_P2;Temp;Humidity;BMP_temperature;BMP_pressure;BME280_temperature;BME280_humidity;BME280_pressure;Samples;Min_cycle;Max_cycle;Signal;HPM_P1;HPM_P2
2021/08/24 00:01:17;;;;;;;2.20;1.40;;;;;;;12.99;75.37;100517.73;1686268;84;21033;-62
2021/08/24 00:03:45;;;;;;;1.70;1.25;;;;;;;12.99;75.42;100519.05;1686054;82;22259;-63
2021/08/24 00:06:12;;;;;;;2.77;1.62;;;;;;;12.99;75.30;100517.73;1698320;82;20947;-62
2021/08/24 00:08:41;;;;;;;1.87;1.30;;;;;;;12.99;75.81;100515.11;1684792;83;21041;-62
2021/08/24 00:11:11;;;;;;;3.15;1.20;;;;;;;12.98;75.64;100525.22;1690587;83;20942;-62
2021/08/24 00:13:38;;;;;;;3.17;1.40;;;;;;;12.99;75.48;100520.36;1685428;82;20958;-62
2021/08/24 00:16:05;;;;;;;;;;;;;;;12.98;75.45;100513.42;1689810;82;21063;-63
2021/08/24 00:18:33;;;;;;;3.55;1.87;;;;;;;12.99;75.47;100524.29;1687868;83;20120;-62
2021/08/24 00:21:00;;;;;;;5.55;1.62;;;;;;;12.99;75.64;100521.23;1675973;83;21568;-62
2021/08/24 00:23:28;;;;;;;3.08;1.40;;;;;;;12.98;75.59;100518.20;1685419;83;21160;-62
2021/08/24 00:25:57;;;;;;;3.05;1.62;;;;;;;12.97;75.70;100520.91;1661780;84;21785;-62
2021/08/24 00:28:24;;;;;;;2.05;1.40;;;;;;;12.97;75.91;100524.84;1684881;83;21090;-62
2021/08/24 00:30:51;;;;;;;3.05;1.50;;;;;;;12.96;75.72;100527.89;1692033;84;20943;-63
2021/08/24 00:33:19;;;;;;;3.97;1.40;;;;;;;12.97;75.94;100530.08;1688821;82;20970;-62
2021/08/24 00:37:56;;;;;;;4.12;1.55;;;;;;;13.00;76.06;100520.77;1860497;74;22543;-61
2021/08/24 00:40:23;;;;;;;2.05;1.37;;;;;;;12.94;76.19;100530.22;1819033;77;21100;-61
2021/08/24 00:42:50;;;;;;;4.47;1.40;;;;;;;12.91;76.04;100538.19;1828783;76;21878;-61
2021/08/24 00:45:17;;;;;;;3.80;1.70;;;;;;;12.88;76.46;100549.69;1825272;76;21555;-62
2021/08/24 00:47:48;;;;;;;2.22;1.67;;;;;;;12.86;76.19;100549.36;1828630;75;20947;-61
2021/08/24 00:50:32;;;;;;;2.50;1.50;;;;;;;12.84;76.18;100547.26;1819897;76;21504;-63
2021/08/24 00:53:02;;;;;;;1.87;1.22;;;;;;;12.82;76.24;100549.08;1851164;76;20930;-61
2021/08/24 00:55:30;;;;;;;2.77;1.37;;;;;;;12.80;76.51;100553.53;1841724;76;21077;-62
2021/08/24 00:58:01;;;;;;;3.77;1.40;;;;;;;12.79;76.22;100548.75;1831979;76;20958;-62
2021/08/24 01:00:31;;;;;;;2.92;1.55;;;;;;;12.76;76.28;100549.73;1840682;75;20962;-62
2021/08/24 01:03:15;;;;;;;3.00;1.60;;;;;;;12.74;76.64;100548.97;1830884;75;21028;-62
2021/08/24 01:05:44;;;;;;;2.47;1.60;;;;;;;12.70;76.49;100556.55;1822263;77;20966;-62
2021/08/24 01:08:25;;;;;;;2.95;1.40;;;;;;;12.69;76.83;100552.24;1830226;75;20993;-62
2021/08/24 01:11:06;;;;;;;2.47;1.57;;;;;;;12.66;76.59;100547.57;1827328;76;20919;-62
2021/08/24 01:14:00;;;;;;;3.45;1.50;;;;;;;12.66;76.76;100552.37;1833997;76;20966;-62
2021/08/24 01:16:40;;;;;;;1.85;1.35;;;;;;;12.67;76.59;100559.31;1827148;76;21016;-62
2021/08/24 01:19:21;;;;;;;2.50;1.87;;;;;;;12.68;76.56;100556.22;1825248;76;20883;-60
2021/08/24 01:22:11;;;;;;;2.77;1.62;;;;;;;12.64;76.52;100559.45;1824275;75;21144;-62
2021/08/24 01:24:55;;;;;;;4.00;1.62;;;;;;;12.61;76.68;100556.95;1776816;80;21127;-63
2021/08/24 01:27:32;;;;;;;2.75;1.67;;;;;;;12.58;76.70;100558.40;1705895;82;21569;-60
2021/08/24 01:30:23;;;;;;;2.98;1.50;;;;;;;12.53;76.50;100561.66;1711282;82;21570;-60
2021/08/24 01:33:17;;;;;;;2.90;1.70;;;;;;;12.49;76.83;100557.45;1703619;82;21554;-62
2021/08/24 01:36:12;;;;;;;3.25;1.40;;;;;;;12.44;77.04;100568.61;1703608;82;21161;-62
2021/08/24 01:39:00;;;;;;;2.20;1.17;;;;;;;12.39;76.76;100564.01;1699876;82;21053;-62
2021/08/24 01:41:54;;;;;;;;;;;;;;;12.41;76.94;100564.80;1715813;81;20996;-61
2021/08/24 01:44:25;;;;;;;2.75;1.37;;;;;;;12.42;77.11;100561.27;1692424;83;20602;-60
2021/08/24 01:47:21;;;;;;;2.42;1.10;;;;;;;12.40;76.91;100568.32;1675247;84;21100;-61
2021/08/24 01:49:57;;;;;;;2.72;1.50;;;;;;;12.39;77.09;100561.39;1674986;84;21106;-62
2021/08/24 01:52:29;;;;;;;4.67;1.60;;;;;;;12.38;77.59;100575.38;1685694;82;21132;-62
2021/08/24 01:55:03;;;;;;;3.83;1.50;;;;;;;12.38;77.45;100567.09;1682862;84;21506;-62
2021/08/24 01:57:38;;;;;;;2.45;1.47;;;;;;;12.37;77.20;100570.61;1644203;85;21088;-62
2021/08/24 02:00:11;;;;;;;3.15;1.52;;;;;;;12.43;77.84;100570.81;1697278;83;21463;-62
2021/08/24 02:02:43;;;;;;;3.47;1.45;;;;;;;12.45;77.44;100566.37;1726647;81;21147;-62
2021/08/24 02:05:15;;;;;;;3.50;1.50;;;;;;;12.44;77.35;100567.30;1785587;77;20990;-62
2021/08/24 02:07:44;;;;;;;3.47;1.37;;;;;;;12.42;77.21;100562.11;1831938;76;20965;-61
2021/08/24 02:10:22;;;;;;;4.80;1.55;;;;;;;12.38;77.04;100561.86;1818014;77;20903;-62
2021/08/24 02:12:51;;;;;;;;;;;;;;;12.28;77.66;100573.15;1827448;76;20961;-62
2021/08/24 02:15:22;;;;;;;4.28;1.57;;;;;;;12.14;77.56;100566.31;1821971;77;21118;-62
2021/08/24 02:17:49;;;;;;;3.25;1.70;;;;;;;12.02;77.47;100568.13;1812863;76;21028;-62
2021/08/24 02:20:27;;;;;;;4.70;1.90;;;;;;;11.94;77.54;100563.64;1823916;77;20931;-62
2021/08/24 02:22:59;;;;;;;4.12;1.75;;;;;;;11.85;77.71;100567.02;1825639;76;20966;-62
2021/08/24 02:25:33;;;;;;;5.10;1.60;;;;;;;11.77;77.59;100565.58;1819650;77;21436;-62
2021/08/24 02:28:34;;;;;;;3.77;1.95;;;;;;;11.71;77.66;100564.05;1836039;77;21001;-62
2021/08/24 02:31:21;;;;;;;4.10;1.52;;;;;;;11.60;77.93;100566.23;1826691;76;20891;-63
2021/08/24 02:33:53;;;;;;;2.72;1.67;;;;;;;11.47;78.46;100565.83;1822500;77;20981;-62
2021/08/24 02:36:22;;;;;;;4.03;1.67;;;;;;;11.37;78.75;100566.64;1823647;77;20985;-62
2021/08/24 02:39:11;;;;;;;2.42;1.37;;;;;;;11.32;78.73;100569.88;1771674;79;20949;-62
2021/08/24 02:41:52;;;;;;;3.12;1.75;;;;;;;11.30;78.44;100569.06;1783206;77;21651;-62
2021/08/24 02:44:32;;;;;;;2.15;1.55;;;;;;;11.31;78.33;100568.14;1785875;79;20928;-62
2021/08/24 02:46:59;;;;;;;3.30;1.80;;;;;;;11.31;78.46;100563.38;1780441;78;21479;-61
2021/08/24 02:49:29;;;;;;;3.25;1.72;;;;;;;11.30;78.68;100562.98;1788208;78;21924;-62
2021/08/24 02:51:58;;;;;;;2.60;1.60;;;;;;;11.28;78.57;100563.49;1785194;78;21056;-62
2021/08/24 02:54:33;;;;;;;2.15;1.40;;;;;;;11.25;78.58;100565.77;1783078;78;21450;-62
2021/08/24 02:57:00;;;;;;;4.58;1.80;;;;;;;11.20;78.49;100568.56;1778304;78;20949;-62
2021/08/24 02:59:29;;;;;;;2.95;1.32;;;;;;;11.14;78.45;100565.30;1781956;79;20980;-61
2021/08/24 03:01:56;;;;;;;4.72;2.25;;;;;;;11.07;78.51;100563.83;1791344;78;21570;-62
2021/08/24 03:04:45;;;;;;;6.42;2.45;;;;;;;11.00;78.59;100562.33;1780177;79;21146;-62
2021/08/24 03:07:16;;;;;;;2.60;2.00;;;;;;;10.92;78.95;100570.43;1687001;82;21080;-62
2021/08/24 03:09:45;;;;;;;2.85;1.72;;;;;;;10.84;79.08;100569.84;1682147;84;21039;-62
2021/08/24 03:12:38;;;;;;;4.28;1.95;;;;;;;10.80;79.13;100569.11;1692315;82;21522;-62
2021/08/24 03:15:25;;;;;;;3.75;1.60;;;;;;;10.72;79.33;100576.35;1676917;82;21039;-61
2021/08/24 03:17:59;;;;;;;4.10;1.85;;;;;;;10.64;79.10;100570.53;1699651;82;21051;-61
2021/08/24 03:20:31;;;;;;;3.52;1.87;;;;;;;10.57;79.15;100569.05;1691852;82;22379;-62
2021/08/24 03:23:00;;;;;;;3.47;2.10;;;;;;;10.49;79.50;100575.37;1694093;82;20928;-62
2021/08/24 03:25:28;;;;;;;3.92;2.52;;;;;;;10.44;79.53;100571.20;1702255;82;21000;-61
2021/08/24 03:27:54;;;;;;;;;;;;;;;10.37;79.57;100573.17;1697354;83;21539;-62
2021/08/24 03:30:23;;;;;;;5.10;2.10;;;;;;;10.30;79.40;100577.72;1696470;82;20116;-62
2021/08/24 03:32:51;;;;;;;8.40;3.05;;;;;;;10.25;79.38;100576.13;1676815;82;21089;-62
2021/08/24 03:35:22;;;;;;;4.95;2.30;;;;;;;10.20;79.44;100581.52;1711911;82;21584;-62
2021/08/24 03:37:48;;;;;;;4.12;2.60;;;;;;;10.19;79.66;100580.25;1691745;82;21022;-61
2021/08/24 03:40:16;;;;;;;3.13;1.80;;;;;;;10.17;80.05;100575.55;1719655;82;21063;-62
2021/08/24 03:42:42;;;;;;;3.75;2.30;;;;;;;10.17;80.24;100586.00;1709886;82;25004;-62
2021/08/24 03:45:11;;;;;;;2.70;1.98;;;;;;;10.16;80.50;100576.44;1710921;82;21065;-62
2021/08/24 03:47:37;;;;;;;4.20;2.30;;;;;;;10.14;80.30;100580.84;1702009;82;21003;-62
2021/08/24 03:50:06;;;;;;;3.63;1.80;;;;;;;10.13;80.72;100580.45;1707687;82;20995;-62
2021/08/24 03:52:33;;;;;;;3.02;1.90;;;;;;;10.11;80.24;100578.33;1697734;82;21505;-62
2021/08/24 03:55:00;;;;;;;4.25;2.40;;;;;;;10.09;80.61;100584.47;1708738;82;21007;-62
2021/08/24 03:57:27;;;;;;;2.80;2.05;;;;;;;10.11;80.59;100580.95;1712430;83;21168;-62
2021/08/24 03:59:55;;;;;;;3.30;2.00;;;;;;;10.09;80.72;100588.84;1713842;82;20944;-61
2021/08/24 04:02:24;;;;;;;3.50;2.25;;;;;;;10.08;80.75;100582.77;1705526;82;21300;-62
2021/08/24 04:04:51;;;;;;;4.78;2.10;;;;;;;10.08;80.88;100580.16;1705609;82;20907;-62
2021/08/24 04:07:18;;;;;;;3.60;1.93;;;;;;;10.08;80.68;100586.69;1717006;82;21626;-61
2021/08/24 04:09:45;;;;;;;5.12;2.25;;;;;;;10.14;80.64;100586.06;1695858;83;21749;-62
2021/08/24 04:12:13;;;;;;;2.50;2.10;;;;;;;10.18;80.55;100587.69;1676431;83;20983;-62
2021/08/24 04:14:41;;;;;;;7.28;2.77;;;;;;;10.22;80.59;100585.38;1723260;82;21021;-62
2021/08/24 04:17:22;;;;;;;5.72;2.12;;;;;;;10.26;80.53;100597.44;1719085;82;21002;-61
2021/08/24 04:19:47;;;;;;;4.47;2.55;;;;;;;10.27;80.55;100585.66;1702378;82;21566;-62
2021/08/24 04:22:20;;;;;;;3.62;1.95;;;;;;;10.32;80.59;100582.91;1668821;84;21117;-62
2021/08/24 04:24:48;;;;;;;5.12;2.87;;;;;;;10.36;80.57;100589.72;1706203;82;20973;-62
2021/08/24 04:27:14;;;;;;;3.52;1.70;;;;;;;10.38;80.55;100593.14;1698306;82;22177;-62
2021/08/24 04:29:41;;;;;;;3.00;1.55;;;;;;;10.42;80.67;100592.16;1653114;84;21070;-62
2021/08/24 04:32:11;;;;;;;4.92;2.25;;;;;;;10.49;80.70;100583.20;1687590;82;21380;-62
2021/08/24 04:37:24;;;;;;;4.28;2.65;;;;;;;10.63;80.63;100600.18;1848293;75;28462;-63
2021/08/24 04:39:51;;;;;;;3.80;2.10;;;;;;;10.72;80.47;100598.55;1845139;77;21685;-63
2021/08/24 04:42:18;;;;;;;4.55;2.10;;;;;;;10.80;80.38;100595.23;1844500;77;21594;-63
2021/08/24 04:45:23;;;;;;;3.47;1.98;;;;;;;10.86;80.39;100602.85;1857405;76;22641;-63
2021/08/24 04:47:50;;;;;;;;;;;;;;;10.84;80.50;100602.08;1821085;77;20970;-63
2021/08/24 04:50:17;;;;;;;3.83;2.08;;;;;;;10.85;80.55;100606.38;1816145;78;21092;-63
2021/08/24 04:52:44;;;;;;;6.55;2.12;;;;;;;10.86;80.52;100602.85;1823233;78;20926;-62
2021/08/24 04:55:12;;;;;;;30.73;3.93;;;;;;;10.87;80.90;100603.73;1822171;78;21048;-63
2021/08/24 04:57:39;;;;;;;4.42;2.45;;;;;;;11.35;81.37;100601.12;1822694;78;20930;-63
2021/08/24 05:00:08;;;;;;;4.58;2.27;;;;;;;11.63;80.12;100602.73;1826877;78;20926;-63
2021/08/24 05:02:34;;;;;;;4.15;2.65;;;;;;;11.57;79.80;100602.97;1824543;78;21234;-61
2021/08/24 05:05:01;;;;;;;4.90;2.72;;;;;;;11.49;79.77;100606.31;1818196;78;20879;-63
2021/08/24 05:07:29;;;;;;;6.67;2.98;;;;;;;11.40;79.88;100605.74;1826690;78;21585;-64
2021/08/24 05:09:56;;;;;;;5.10;2.35;;;;;;;11.30;79.99;100600.44;1826246;78;20954;-63
2021/08/24 05:12:22;;;;;;;5.55;2.42;;;;;;;11.24;80.05;100613.73;1824764;77;20969;-61
2021/08/24 05:14:51;;;;;;;15.10;3.40;;;;;;;11.22;80.20;100612.93;1823567;77;21445;-62
2021/08/24 05:17:18;;;;;;;4.20;2.47;;;;;;;11.26;80.30;100618.47;1823543;78;20918;-63
2021/08/24 05:19:44;;;;;;;4.53;2.50;;;;;;;11.27;80.33;100613.63;1824048;78;21586;-62
2021/08/24 05:22:11;;;;;;;4.50;2.93;;;;;;;11.33;80.36;100616.02;1826589;78;20987;-63
2021/08/24 05:24:40;;;;;;;5.72;2.80;;;;;;;11.39;80.26;100615.78;1820412;77;20957;-62
2021/08/24 05:27:07;;;;;;;4.35;2.70;;;;;;;11.43;80.16;100616.09;1822853;77;21943;-61
2021/08/24 05:29:34;;;;;;;5.17;2.40;;;;;;;11.52;80.19;100616.66;1820551;78;21021;-62
2021/08/24 05:32:02;;;;;;;5.70;2.90;;;;;;;11.67;80.13;100622.62;1825802;78;27049;-62
2021/08/24 05:34:30;;;;;;;4.85;2.58;;;;;;;11.78;79.96;100625.69;1820589;78;20992;-61
2021/08/24 05:36:56;;;;;;;7.92;2.77;;;;;;;12.12;80.19;100621.80;1815295;78;20891;-62
2021/08/24 05:39:23;;;;;;;5.17;2.92;;;;;;;12.56;79.79;100629.64;1822702;78;21916;-62
2021/08/24 05:41:50;;;;;;;6.67;2.80;;;;;;;12.80;79.12;100624.29;1818759;78;21499;-62
2021/08/24 05:44:16;;;;;;;5.28;3.10;;;;;;;12.87;78.35;100623.13;1817614;77;21606;-62
2021/08/24 05:46:43;;;;;;;6.73;2.77;;;;;;;12.92;78.87;100613.30;1826689;77;20886;-62
2021/08/24 05:49:10;;;;;;;4.42;2.27;;;;;;;12.95;78.44;100615.80;1820625;78;21431;-62
2021/08/24 05:51:38;;;;;;;5.20;2.50;;;;;;;12.99;77.88;100623.91;1815663;78;21067;-62
2021/08/24 05:54:06;;;;;;;4.50;3.05;;;;;;;13.05;77.90;100619.73;1821888;77;21010;-62
2021/08/24 05:56:33;;;;;;;6.58;3.00;;;;;;;13.10;78.33;100624.30;1824075;77;28231;-62
2021/08/24 05:58:59;;;;;;;4.83;3.27;;;;;;;13.26;78.34;100627.61;1817818;78;20953;-63
2021/08/24 06:01:31;;;;;;;4.07;2.80;;;;;;;13.58;78.22;100628.78;1827907;77;20960;-63
2021/08/24 06:03:59;;;;;;;4.75;2.87;;;;;;;14.28;78.19;100632.52;1819731;77;21412;-63
2021/08/24 06:06:33;;;;;;;7.30;3.37;;;;;;;14.53;77.57;100632.20;1825634;78;20906;-62
2021/08/24 06:09:00;;;;;;;5.25;2.60;;;;;;;15.09;78.03;100621.08;1806935;78;21468;-62
2021/08/24 06:11:34;;;;;;;4.33;3.40;;;;;;;15.34;77.42;100628.07;1820530;77;28172;-63
2021/08/24 06:14:03;;;;;;;3.70;2.72;;;;;;;15.25;76.03;100632.98;1818453;77;20911;-63
2021/08/24 06:16:31;;;;;;;5.62;3.15;;;;;;;15.21;76.46;100629.66;1807264;78;21501;-63
2021/08/24 06:18:58;;;;;;;4.92;3.05;;;;;;;15.31;76.89;100630.86;1819363;77;21546;-63
2021/08/24 06:21:25;;;;;;;4.40;2.77;;;;;;;15.55;76.32;100629.20;1814854;78;20962;-63
2021/08/24 06:23:52;;;;;;;6.25;2.95;;;;;;;15.55;74.91;100631.84;1816374;77;20931;-63
2021/08/24 06:26:19;;;;;;;5.05;2.70;;;;;;;15.44;75.39;100634.56;1810473;78;20934;-63
2021/08/24 12:27:16;;;;;;;5.33;3.22;;;;;;;16.19;50.66;100696.84;1818856;75;20987;-60
2021/08/24 12:29:49;;;;;;;5.70;3.17;;;;;;;16.19;50.12;100699.92;1757617;79;21246;-61
2021/08/24 12:32:30;;;;;;;5.95;3.55;;;;;;;16.06;50.33;100712.93;1761082;77;20972;-62
2021/08/24 12:35:41;;;;;;;6.00;3.98;;;;;;;16.25;50.86;100692.55;1763033;79;20963;-62
2021/08/24 12:38:09;;;;;;;4.17;3.30;;;;;;;16.67;50.28;100691.06;1764232;79;20990;-60
2021/08/24 12:40:50;;;;;;;6.83;3.98;;;;;;;16.61;49.00;100683.52;1757129;79;21284;-60
2021/08/24 12:43:40;;;;;;;5.42;3.90;;;;;;;16.59;49.85;100685.85;1758833;79;21646;-60
2021/08/24 12:46:24;;;;;;;5.92;3.37;;;;;;;16.87;50.10;100697.02;1763381;79;21118;-60
2021/08/24 12:49:22;;;;;;;3.12;2.75;;;;;;;16.68;49.59;100690.12;1762671;79;21057;-61
2021/08/24 12:51:53;;;;;;;4.92;3.25;;;;;;;16.71;49.77;100693.89;1808488;77;21192;-60
2021/08/24 12:54:30;;;;;;;4.40;3.10;;;;;;;16.82;50.52;100679.28;1804851;77;21426;-61
2021/08/24 12:57:17;;;;;;;4.62;2.90;;;;;;;16.70;49.73;100673.75;1801764;77;20962;-61
2021/08/24 12:59:46;;;;;;;;;;;;;;;16.40;50.51;100695.26;1809102;77;21052;-61
2021/08/24 13:02:35;;;;;;;4.90;3.08;;;;;;;16.39;50.78;100696.20;1799370;77;20459;-61
2021/08/24 13:05:16;;;;;;;5.42;3.10;;;;;;;16.41;50.82;100702.22;1808556;77;21721;-61
2021/08/24 13:08:08;;;;;;;4.80;3.00;;;;;;;16.74;51.03;100694.19;1803679;77;22297;-61
2021/08/24 13:10:39;;;;;;;4.30;2.70;;;;;;;16.58;50.75;100700.83;1725242;81;21067;-61
2021/08/24 13:13:34;;;;;;;5.55;2.98;;;;;;;16.33;51.02;100703.52;1728476;81;21122;-61
2021/08/24 13:16:10;;;;;;;4.03;2.65;;;;;;;16.42;51.43;100704.78;1668496;83;21098;-61
2021/08/24 13:18:47;;;;;;;6.47;2.98;;;;;;;16.39;51.54;100701.48;1674051;82;21070;-62
2021/08/24 13:21:28;;;;;;;7.40;2.75;;;;;;;16.27;51.88;100714.41;1699674;82;21929;-61
2021/08/24 13:24:02;;;;;;;4.28;2.42;;;;;;;16.19;52.39;100742.08;1691571;82;21133;-61
2021/08/24 13:26:46;;;;;;;4.62;2.67;;;;;;;16.10;52.47;100706.55;1698783;82;21565;-62
2021/08/24 13:29:14;;;;;;;3.98;2.47;;;;;;;16.09;52.79;100715.39;1694579;83;21082;-61
2021/08/24 13:31:48;;;;;;;4.60;2.47;;;;;;;15.99;53.26;100723.40;1694445;82;21143;-61
2021/08/24 13:34:26;;;;;;;4.97;2.72;;;;;;;15.92;53.17;100723.36;1695436;82;21852;-61
2021/08/24 13:36:55;;;;;;;4.03;2.40;;;;;;;16.11;54.05;100716.17;1694521;82;21057;-61
2021/08/24 13:39:21;;;;;;;4.25;2.52;;;;;;;16.28;53.58;100708.19;1696810;82;21646;-61
2021/08/24 13:41:55;;;;;;;7.15;2.10;;;;;;;16.16;53.26;100724.68;1693816;82;21003;-61
2021/08/24 13:44:26;;;;;;;4.35;2.60;;;;;;;16.16;53.35;100706.23;1694338;82;21026;-61
2021/08/24 13:47:04;;;;;;;3.62;2.27;;;;;;;16.04;53.36;100713.47;1737723;80;21934;-61
2021/08/24 13:49:32;;;;;;;4.35;2.60;;;;;;;16.20;53.38;100722.25;1757862;79;21001;-61
2021/08/24 13:52:05;;;;;;;4.20;2.12;;;;;;;16.37;53.61;100716.52;1762128;79;21031;-61
2021/08/24 13:54:38;;;;;;;4.85;2.60;;;;;;;16.19;53.60;100708.70;1759621;79;20977;-61
2021/08/24 13:57:10;;;;;;;3.80;2.65;;;;;;;16.20;54.06;100723.56;1757705;79;20965;-61
2021/08/24 14:00:02;;;;;;;2.98;2.30;;;;;;;16.20;54.07;100718.30;1759846;79;21454;-61
2021/08/24 14:02:35;;;;;;;5.65;2.20;;;;;;;16.26;54.56;100717.95;1728293;81;21014;-61
2021/08/24 14:05:03;;;;;;;6.12;2.65;;;;;;;16.19;54.36;100715.29;1731039;80;21113;-62
2021/08/24 14:07:37;;;;;;;5.67;2.60;;;;;;;16.03;54.52;100710.47;1750053;80;21073;-62
2021/08/24 14:10:29;;;;;;;5.50;2.70;;;;;;;15.95;54.71;100717.93;1750134;80;21014;-61
2021/08/24 14:13:04;;;;;;;5.25;2.70;;;;;;;15.92;54.96;100713.67;1766015;79;21131;-62
2021/08/24 14:15:39;;;;;;;5.85;2.33;;;;;;;16.05;55.40;100705.97;1755259;79;20944;-60
2021/08/24 14:18:16;;;;;;;3.35;2.20;;;;;;;15.99;55.05;100703.64;1760042;79;21025;-59
2021/08/24 14:21:06;;;;;;;4.00;2.30;;;;;;;15.84;55.20;100703.54;1802108;77;21137;-59
2021/08/24 14:23:45;;;;;;;4.00;2.45;;;;;;;15.52;55.83;100704.38;1807552;77;20962;-59
2021/08/24 14:26:28;;;;;;;5.33;2.30;;;;;;;15.52;55.70;100712.28;1799603;77;21443;-59
2021/08/24 14:28:59;;;;;;;4.80;2.60;;;;;;;15.58;55.84;100725.11;1802608;77;20966;-59
2021/08/24 14:31:30;;;;;;;5.78;2.45;;;;;;;15.39;56.08;100723.42;1801294;77;21670;-59
2021/08/24 14:34:37;;;;;;;6.08;2.35;;;;;;;15.28;56.04;100725.75;1803281;77;20903;-59
2021/08/24 14:37:09;;;;;;;3.50;2.30;;;;;;;15.16;56.30;100723.75;1809212;77;26536;-61
2021/08/24 14:39:40;;;;;;;3.77;2.47;;;;;;;15.03;56.96;100717.39;1798183;77;21640;-61
2021/08/24 14:42:25;;;;;;;5.20;2.30;;;;;;;15.00;56.99;100723.66;1802176;77;20903;-61
2021/08/24 14:44:51;;;;;;;3.98;2.35;;;;;;;15.02;56.71;100713.08;1798789;77;20993;-61
2021/08/24 14:47:38;;;;;;;2.90;2.05;;;;;;;15.10;56.75;100704.34;1806910;77;21544;-61
2021/08/24 14:50:08;;;;;;;4.78;2.47;;;;;;;15.11;56.71;100697.66;1805642;77;20995;-62
2021/08/24 14:52:51;;;;;;;3.12;1.90;;;;;;;15.03;56.69;100709.50;1802850;77;21551;-62
2021/08/24 14:55:40;;;;;;;4.30;2.20;;;;;;;14.87;56.44;100712.91;1804591;77;20934;-62
2021/08/24 14:58:22;;;;;;;4.12;2.12;;;;;;;14.80;56.57;100700.13;1802197;77;21035;-62
2021/08/24 15:01:12;;;;;;;2.98;1.77;;;;;;;14.80;56.66;100727.27;1808623;77;21097;-62
2021/08/24 15:04:04;;;;;;;3.83;2.27;;;;;;;14.77;56.72;100695.88;1804108;77;20970;-62
2021/08/24 15:06:42;;;;;;;2.35;1.52;;;;;;;14.71;57.31;100696.18;1800904;77;21871;-62
2021/08/24 15:09:34;;;;;;;4.47;2.12;;;;;;;14.73;57.38;100696.94;1805311;77;21033;-62
2021/08/24 15:12:06;;;;;;;5.42;2.22;;;;;;;14.68;57.22;100704.22;1798815;77;21815;-62
2021/08/24 15:14:41;;;;;;;5.47;2.27;;;;;;;14.60;57.78;100690.59;1777423;77;21091;-62
2021/08/24 15:17:12;;;;;;;3.77;1.92;;;;;;;14.69;57.52;100692.77;1804698;77;21010;-63
2021/08/24 15:19:47;;;;;;;3.95;2.12;;;;;;;14.82;57.58;100691.24;1805286;77;21595;-62
2021/08/24 15:22:27;;;;;;;3.90;2.40;;;;;;;14.98;56.88;100681.67;1801702;77;20977;-62
2021/08/24 15:24:57;;;;;;;4.17;2.33;;;;;;;15.25;57.28;100690.39;1806191;77;21095;-61
2021/08/24 15:27:28;;;;;;;4.25;2.22;;;;;;;15.32;56.88;100685.21;1803218;77;21005;-62
2021/08/24 15:30:24;;;;;;;5.20;2.60;;;;;;;15.09;57.08;100685.52;1807981;77;21026;-62
2021/08/24 15:32:57;;;;;;;3.60;2.45;;;;;;;14.98;57.03;100688.69;1804636;77;21237;-62
2021/08/24 15:35:32;;;;;;;6.60;2.20;;;;;;;14.88;57.37;100685.67;1806542;77;20935;-62
2021/08/24 15:38:05;;;;;;;3.92;2.42;;;;;;;14.79;57.72;100687.45;1798006;77;21039;-62
2021/08/24 15:40:44;;;;;;;3.50;2.17;;;;;;;14.67;57.80;100684.09;1805297;77;20973;-62
2021/08/24 15:43:27;;;;;;;4.65;2.15;;;;;;;14.55;58.13;100681.14;1801259;77;21044;-62
2021/08/24 15:45:54;;;;;;;4.08;2.20;;;;;;;14.60;58.12;100681.39;1805587;77;21064;-62
2021/08/24 15:48:22;;;;;;;4.50;2.65;;;;;;;14.72;58.06;100686.05;1802774;77;21077;-62
2021/08/24 15:50:49;;;;;;;2.98;2.25;;;;;;;14.72;58.17;100682.94;1802424;77;20980;-62
2021/08/24 15:53:16;;;;;;;5.73;2.10;;;;;;;14.59;58.24;100690.19;1801722;77;21509;-63
2021/08/24 15:55:54;;;;;;;4.20;2.53;;;;;;;14.44;58.46;100683.41;1807232;77;21318;-62
2021/08/24 15:58:21;;;;;;;4.85;2.02;;;;;;;14.34;58.44;100687.41;1805572;77;21127;-62
2021/08/24 16:00:48;;;;;;;4.17;2.30;;;;;;;14.30;58.55;100689.78;1805350;77;21061;-62
2021/08/24 16:03:16;;;;;;;3.85;2.00;;;;;;;14.23;58.63;100683.12;1806373;77;21097;-62
2021/08/24 16:05:43;;;;;;;4.80;2.05;;;;;;;14.21;59.02;100686.28;1804355;77;21074;-62
2021/08/24 16:08:10;;;;;;;5.15;1.98;;;;;;;14.21;58.85;100683.66;1805819;77;20923;-62
2021/08/24 16:10:41;;;;;;;5.33;1.92;;;;;;;14.23;59.04;100683.12;1803810;77;21135;-61
2021/08/24 16:13:10;;;;;;;3.10;2.08;;;;;;;14.26;58.97;100679.04;1805003;77;20969;-61
2021/08/24 16:15:39;;;;;;;3.50;2.05;;;;;;;14.24;59.35;100683.51;1805787;77;21077;-62
2021/08/24 16:18:10;;;;;;;4.97;1.90;;;;;;;14.15;60.26;100694.45;1801569;77;22104;-62
2021/08/24 16:20:37;;;;;;;5.17;2.10;;;;;;;14.09;59.62;100685.09;1805836;77;21053;-62
2021/08/24 16:23:05;;;;;;;4.67;2.10;;;;;;;14.07;59.55;100678.58;1805022;77;21479;-62
2021/08/24 16:25:32;;;;;;;3.60;2.00;;;;;;;14.01;60.00;100688.06;1802855;77;21526;-62
2021/08/24 16:27:59;;;;;;;;;;;;;;;14.00;60.19;100675.86;1809457;77;21092;-62
2021/08/24 16:30:29;;;;;;;;;;;;;;;13.98;60.25;100679.02;1808977;77;20079;-62
2021/08/24 16:32:57;;;;;;;3.95;2.10;;;;;;;13.97;60.53;100683.85;1806369;77;20117;-62
2021/08/24 16:35:38;;;;;;;6.17;2.02;;;;;;;13.97;60.43;100683.85;1806059;77;21900;-62
2021/08/24 16:38:10;;;;;;;7.60;2.52;;;;;;;13.96;60.74;100682.16;1808126;77;21605;-62
2021/08/24 16:40:39;;;;;;;5.62;2.42;;;;;;;13.90;61.05;100677.20;1803143;77;21029;-62
2021/08/24 16:43:06;;;;;;;5.80;2.45;;;;;;;13.91;61.76;100680.20;1805737;77;20903;-62
2021/08/24 16:45:33;;;;;;;4.13;1.83;;;;;;;13.88;61.71;100676.41;1801898;77;20954;-62
2021/08/24 16:48:00;;;;;;;3.72;2.67;;;;;;;13.83;61.73;100683.64;1804359;77;22419;-61
2021/08/24 16:50:29;;;;;;;5.40;3.12;;;;;;;13.77;62.45;100686.55;1798423;77;20963;-61
2021/08/24 16:52:56;;;;;;;8.90;3.47;;;;;;;13.72;62.05;100693.77;1757488;79;20998;-61
2021/08/24 16:55:25;;;;;;;5.05;3.02;;;;;;;13.70;61.98;100687.76;1758646;79;21021;-61
2021/08/24 16:57:52;;;;;;;6.28;2.87;;;;;;;13.48;63.09;100679.52;1804423;77;20975;-61
2021/08/24 17:00:22;;;;;;;5.15;3.00;;;;;;;13.48;63.09;100679.52;1802798;77;21453;-61
2021/08/24 17:02:49;;;;;;;3.80;2.45;;;;;;;13.48;63.31;100691.33;1806939;77;21468;-62
2021/08/24 17:05:21;;;;;;;9.48;3.05;;;;;;;13.48;63.31;100691.33;1806038;77;21093;-62
2021/08/24 17:07:47;;;;;;;6.80;3.10;;;;;;;13.45;62.86;100696.70;1807114;77;21157;-62
2021/08/24 17:10:14;;;;;;;4.77;2.90;;;;;;;13.45;63.11;100696.70;1805433;77;21080;-62
2021/08/24 17:12:42;;;;;;;7.45;2.62;;;;;;;13.44;63.29;100692.36;1804997;77;21541;-62
2021/08/24 17:15:17;;;;;;;6.47;2.90;;;;;;;13.40;63.04;100683.78;1803666;77;21528;-62
2021/08/24 17:18:04;;;;;;;6.20;2.17;;;;;;;13.29;63.51;100675.98;1808605;77;21369;-62
2021/08/24 17:20:33;;;;;;;5.17;2.40;;;;;;;13.29;63.51;100675.98;1704452;81;21020;-62
2021/08/24 17:23:01;;;;;;;5.87;2.40;;;;;;;13.27;64.56;100674.73;1703593;82;21012;-62
2021/08/24 17:25:35;;;;;;;3.45;2.47;;;;;;;13.23;64.91;100677.54;1703260;81;21897;-62
2021/08/24 17:28:06;;;;;;;6.80;2.52;;;;;;;13.17;64.20;100680.81;1674505;82;21035;-62
2021/08/24 17:30:35;;;;;;;5.08;2.47;;;;;;;13.10;64.09;100680.66;1676129;82;21033;-62
2021/08/24 17:33:04;;;;;;;7.58;2.95;;;;;;;13.07;64.51;100680.80;1701299;81;21055;-62
2021/08/24 17:35:33;;;;;;;3.92;2.87;;;;;;;12.96;64.74;100662.89;1700531;81;21708;-62
2021/08/24 17:38:01;;;;;;;5.65;2.62;;;;;;;12.98;64.77;100675.95;1700680;82;21565;-61
2021/08/24 17:40:30;;;;;;;7.10;2.80;;;;;;;12.97;64.61;100675.57;1666646;82;21072;-61
2021/08/24 17:42:57;;;;;;;4.37;2.02;;;;;;;12.96;64.90;100683.02;1704153;82;21015;-61
2021/08/24 17:45:35;;;;;;;4.25;2.45;;;;;;;12.93;64.52;100675.28;1706270;81;21139;-62
2021/08/24 17:48:10;;;;;;;3.27;2.05;;;;;;;12.94;64.98;100675.23;1825726;77;21073;-62
2021/08/24 17:50:42;;;;;;;5.00;2.50;;;;;;;12.92;64.83;100680.14;1806461;77;21086;-63
2021/08/24 17:53:03;;;;;;;4.25;2.50;;;;;;;12.92;65.32;100684.08;1835746;77;20985;-62
2021/08/24 17:55:30;;;;;;;3.07;2.33;;;;;;;12.92;64.92;100682.77;1806963;77;21068;-62
2021/08/24 17:57:57;;;;;;;5.33;3.10;;;;;;;12.73;65.25;100655.15;1835483;77;22103;-61